sensor_id;sensor_type;location;lat;lon;timestamp;P1;durP1;ratioP1;P2;durP2;ratioP2
18857;SDS011;9558;50.178;8.370;2023-05-07T00:01:15;1.00;;;0.52;;
18857;SDS011;9558;50.178;8.370;2023-05-07T00:04:01;0.70;;;0.60;;
18857;SDS011;9558;50.178;8.370;2023-05-07T00:06:48;0.85;;;0.43;;
18857;SDS011;9558;50.178;8.370;2023-05-07T00:09:35;0.82;;;0.75;;
18857;SDS011;9558;50.178;8.370;2023-05-07T00:12:22;4.60;;;0.70;;
18857;SDS011;9558;50.178;8.370;2023-05-07T00:15:10;0.57;;;0.57;;
18857;SDS011;9558;50.178;8.370;2023-05-07T00:17:57;0.82;;;0.40;;
18857;SDS011;9558;50.178;8.370;2023-05-07T00:20:45;0.68;;;0.60;;
18857;SDS011;9558;50.178;8.370;2023-05-07T00:23:31;1.10;;;0.57;;
18857;SDS011;9558;50.178;8.370;2023-05-07T00:26:18;0.40;;;0.40;;
18857;SDS011;9558;50.178;8.370;2023-05-07T00:29:08;1.88;;;0.43;;
18857;SDS011;9558;50.178;8.370;2023-05-07T00:31:56;1.17;;;0.63;;
18857;SDS011;9558;50.178;8.370;2023-05-07T00:34:42;2.97;;;0.70;;
18857;SDS011;9558;50.178;8.370;2023-05-07T00:37:29;0.60;;;0.60;;
18857;SDS011;9558;50.178;8.370;2023-05-07T00:40:16;2.10;;;0.82;;
18857;SDS011;9558;50.178;8.370;2023-05-07T00:43:03;1.25;;;0.75;;
18857;SDS011;9558;50.178;8.370;2023-05-07T00:45:50;1.10;;;0.60;;
18857;SDS011;9558;50.178;8.370;2023-05-07T00:48:39;2.20;;;0.60;;
18857;SDS011;9558;50.178;8.370;2023-05-07T00:51:26;0.57;;;0.57;;
18857;SDS011;9558;50.178;8.370;2023-05-07T00:54:13;1.27;;;0.77;;
18857;SDS011;9558;50.178;8.370;2023-05-07T00:57:01;1.00;;;0.60;;
18857;SDS011;9558;50.178;8.370;2023-05-07T00:59:49;0.60;;;0.60;;
18857;SDS011;9558;50.178;8.370;2023-05-07T01:02:37;0.73;;;0.50;;
18857;SDS011;9558;50.178;8.370;2023-05-07T01:05:26;1.38;;;0.40;;
18857;SDS011;9558;50.178;8.370;2023-05-07T01:08:15;1.85;;;0.45;;
18857;SDS011;9558;50.178;8.370;2023-05-07T01:11:04;0.55;;;0.50;;
18857;SDS011;9558;50.178;8.370;2023-05-07T01:13:50;1.05;;;0.55;;
18857;SDS011;9558;50.178;8.370;2023-05-07T01:16:38;0.47;;;0.40;;
18857;SDS011;9558;50.178;8.370;2023-05-07T01:19:26;0.82;;;0.40;;
18857;SDS011;9558;50.178;8.370;2023-05-07T01:22:17;1.17;;;0.50;;
18857;SDS011;9558;50.178;8.370;2023-05-07T01:25:15;2.65;;;0.80;;
18857;SDS011;9558;50.178;8.370;2023-05-07T01:28:02;0.57;;;0.57;;
18857;SDS011;9558;50.178;8.370;2023-05-07T01:30:50;0.77;;;0.60;;
18857;SDS011;9558;50.178;8.370;2023-05-07T01:33:40;0.57;;;0.57;;
18857;SDS011;9558;50.178;8.370;2023-05-07T01:36:30;0.60;;;0.60;;
18857;SDS011;9558;50.178;8.370;2023-05-07T01:39:20;1.23;;;0.70;;
18857;SDS011;9558;50.178;8.370;2023-05-07T01:42:07;1.55;;;0.60;;
18857;SDS011;9558;50.178;8.370;2023-05-07T01:44:54;0.70;;;0.70;;
18857;SDS011;9558;50.178;8.370;2023-05-07T01:47:42;0.77;;;0.50;;
18857;SDS011;9558;50.178;8.370;2023-05-07T01:50:29;0.77;;;0.70;;
18857;SDS011;9558;50.178;8.370;2023-05-07T01:53:18;0.60;;;0.60;;
18857;SDS011;9558;50.178;8.370;2023-05-07T01:56:06;1.23;;;0.60;;
18857;SDS011;9558;50.178;8.370;2023-05-07T01:58:53;0.75;;;0.55;;
18857;SDS011;9558;50.178;8.370;2023-05-07T02:01:40;0.70;;;0.70;;
18857;SDS011;9558;50.178;8.370;2023-05-07T02:04:27;1.38;;;0.60;;
18857;SDS011;9558;50.178;8.370;2023-05-07T02:07:13;0.57;;;0.57;;
18857;SDS011;9558;50.178;8.370;2023-05-07T02:10:00;2.45;;;0.45;;
18857;SDS011;9558;50.178;8.370;2023-05-07T02:12:49;1.98;;;0.75;;
18857;SDS011;9558;50.178;8.370;2023-05-07T02:15:36;0.40;;;0.40;;
18857;SDS011;9558;50.178;8.370;2023-05-07T02:18:22;1.40;;;0.50;;
18857;SDS011;9558;50.178;8.370;2023-05-07T02:21:09;0.63;;;0.50;;
18857;SDS011;9558;50.178;8.370;2023-05-07T02:23:56;0.60;;;0.60;;
18857;SDS011;9558;50.178;8.370;2023-05-07T02:26:43;0.68;;;0.50;;
18857;SDS011;9558;50.178;8.370;2023-05-07T02:29:31;0.60;;;0.60;;
18857;SDS011;9558;50.178;8.370;2023-05-07T02:32:17;0.60;;;0.60;;
18857;SDS011;9558;50.178;8.370;2023-05-07T02:35:05;0.45;;;0.45;;
18857;SDS011;9558;50.178;8.370;2023-05-07T02:37:52;1.02;;;0.90;;
18857;SDS011;9558;50.178;8.370;2023-05-07T02:40:39;0.95;;;0.47;;
18857;SDS011;9558;50.178;8.370;2023-05-07T02:43:28;0.43;;;0.43;;
18857;SDS011;9558;50.178;8.370;2023-05-07T02:46:16;0.75;;;0.50;;
18857;SDS011;9558;50.178;8.370;2023-05-07T02:49:03;0.60;;;0.60;;
18857;SDS011;9558;50.178;8.370;2023-05-07T02:51:50;2.28;;;0.65;;
18857;SDS011;9558;50.178;8.370;2023-05-07T02:54:37;1.90;;;0.63;;
18857;SDS011;9558;50.178;8.370;2023-05-07T02:57:23;0.68;;;0.60;;
18857;SDS011;9558;50.178;8.370;2023-05-07T03:00:11;1.92;;;0.55;;
18857;SDS011;9558;50.178;8.370;2023-05-07T03:03:00;0.40;;;0.40;;
18857;SDS011;9558;50.178;8.370;2023-05-07T03:05:47;0.47;;;0.47;;
18857;SDS011;9558;50.178;8.370;2023-05-07T03:08:34;0.50;;;0.50;;
18857;SDS011;9558;50.178;8.370;2023-05-07T03:11:21;1.08;;;0.70;;
18857;SDS011;9558;50.178;8.370;2023-05-07T03:14:08;1.33;;;0.68;;
18857;SDS011;9558;50.178;8.370;2023-05-07T03:16:55;1.08;;;0.60;;
18857;SDS011;9558;50.178;8.370;2023-05-07T03:19:43;1.05;;;0.60;;
18857;SDS011;9558;50.178;8.370;2023-05-07T03:22:30;0.50;;;0.50;;
18857;SDS011;9558;50.178;8.370;2023-05-07T03:25:16;0.45;;;0.45;;
18857;SDS011;9558;50.178;8.370;2023-05-07T03:28:03;1.17;;;0.70;;
18857;SDS011;9558;50.178;8.370;2023-05-07T03:30:50;1.08;;;0.70;;
18857;SDS011;9558;50.178;8.370;2023-05-07T03:33:39;0.90;;;0.90;;
18857;SDS011;9558;50.178;8.370;2023-05-07T03:36:38;3.28;;;0.60;;
18857;SDS011;9558;50.178;8.370;2023-05-07T03:39:25;0.68;;;0.68;;
18857;SDS011;9558;50.178;8.370;2023-05-07T03:42:12;0.50;;;0.50;;
18857;SDS011;9558;50.178;8.370;2023-05-07T03:44:58;0.73;;;0.73;;
18857;SDS011;9558;50.178;8.370;2023-05-07T03:47:45;3.38;;;0.73;;
18857;SDS011;9558;50.178;8.370;2023-05-07T03:50:32;0.35;;;0.35;;
18857;SDS011;9558;50.178;8.370;2023-05-07T03:53:20;1.23;;;0.80;;
18857;SDS011;9558;50.178;8.370;2023-05-07T03:56:07;1.05;;;0.60;;
18857;SDS011;9558;50.178;8.370;2023-05-07T03:58:53;0.80;;;0.80;;
18857;SDS011;9558;50.178;8.370;2023-05-07T04:01:40;0.50;;;0.50;;
18857;SDS011;9558;50.178;8.370;2023-05-07T04:04:27;0.60;;;0.60;;
18857;SDS011;9558;50.178;8.370;2023-05-07T04:07:18;0.70;;;0.60;;
18857;SDS011;9558;50.178;8.370;2023-05-07T04:10:06;0.40;;;0.40;;
18857;SDS011;9558;50.178;8.370;2023-05-07T04:12:53;2.60;;;0.93;;
18857;SDS011;9558;50.178;8.370;2023-05-07T04:15:40;1.02;;;0.80;;
18857;SDS011;9558;50.178;8.370;2023-05-07T04:18:27;0.50;;;0.50;;
18857;SDS011;9558;50.178;8.370;2023-05-07T04:21:14;1.27;;;0.70;;
18857;SDS011;9558;50.178;8.370;2023-05-07T04:24:02;2.13;;;0.82;;
18857;SDS011;9558;50.178;8.370;2023-05-07T04:26:50;0.50;;;0.50;;
18857;SDS011;9558;50.178;8.370;2023-05-07T04:29:38;0.70;;;0.60;;
18857;SDS011;9558;50.178;8.370;2023-05-07T04:32:27;1.92;;;0.90;;
18857;SDS011;9558;50.178;8.370;2023-05-07T04:35:14;1.67;;;0.82;;
18857;SDS011;9558;50.178;8.370;2023-05-07T04:38:01;0.75;;;0.52;;
18857;SDS011;9558;50.178;8.370;2023-05-07T04:40:47;0.50;;;0.50;;
18857;SDS011;9558;50.178;8.370;2023-05-07T04:43:36;0.50;;;0.50;;
18857;SDS011;9558;50.178;8.370;2023-05-07T04:46:22;0.60;;;0.60;;
18857;SDS011;9558;50.178;8.370;2023-05-07T04:49:10;1.85;;;0.70;;
18857;SDS011;9558;50.178;8.370;2023-05-07T04:51:56;0.63;;;0.55;;
18857;SDS011;9558;50.178;8.370;2023-05-07T04:54:43;0.68;;;0.60;;
18857;SDS011;9558;50.178;8.370;2023-05-07T04:57:30;1.65;;;0.73;;
18857;SDS011;9558;50.178;8.370;2023-05-07T05:00:18;0.70;;;0.70;;
18857;SDS011;9558;50.178;8.370;2023-05-07T05:03:05;0.98;;;0.50;;
18857;SDS011;9558;50.178;8.370;2023-05-07T05:05:52;1.95;;;0.75;;
18857;SDS011;9558;50.178;8.370;2023-05-07T05:08:39;0.82;;;0.75;;
18857;SDS011;9558;50.178;8.370;2023-05-07T05:11:26;0.70;;;0.70;;
18857;SDS011;9558;50.178;8.370;2023-05-07T05:14:13;1.80;;;0.80;;
18857;SDS011;9558;50.178;8.370;2023-05-07T05:17:01;0.73;;;0.73;;
18857;SDS011;9558;50.178;8.370;2023-05-07T05:19:48;1.10;;;1.00;;
18857;SDS011;9558;50.178;8.370;2023-05-07T05:22:35;0.70;;;0.70;;
18857;SDS011;9558;50.178;8.370;2023-05-07T05:25:21;0.65;;;0.60;;
18857;SDS011;9558;50.178;8.370;2023-05-07T05:28:08;0.80;;;0.75;;
18857;SDS011;9558;50.178;8.370;2023-05-07T05:30:55;1.00;;;0.70;;
18857;SDS011;9558;50.178;8.370;2023-05-07T05:33:43;0.60;;;0.40;;
18857;SDS011;9558;50.178;8.370;2023-05-07T05:36:30;1.02;;;0.80;;
18857;SDS011;9558;50.178;8.370;2023-05-07T05:39:17;1.25;;;0.55;;
18857;SDS011;9558;50.178;8.370;2023-05-07T05:42:04;3.60;;;0.77;;
18857;SDS011;9558;50.178;8.370;2023-05-07T05:44:51;0.65;;;0.52;;
18857;SDS011;9558;50.178;8.370;2023-05-07T05:47:37;2.10;;;0.65;;
18857;SDS011;9558;50.178;8.370;2023-05-07T05:50:29;1.17;;;0.77;;
18857;SDS011;9558;50.178;8.370;2023-05-07T05:53:15;0.50;;;0.50;;
18857;SDS011;9558;50.178;8.370;2023-05-07T05:56:02;2.47;;;1.02;;
18857;SDS011;9558;50.178;8.370;2023-05-07T05:58:49;0.65;;;0.50;;
18857;SDS011;9558;50.178;8.370;2023-05-07T06:01:36;0.85;;;0.60;;
18857;SDS011;9558;50.178;8.370;2023-05-07T06:04:23;3.13;;;0.73;;
18857;SDS011;9558;50.178;8.370;2023-05-07T06:07:11;1.83;;;1.00;;
18857;SDS011;9558;50.178;8.370;2023-05-07T06:09:58;1.02;;;0.65;;
18857;SDS011;9558;50.178;8.370;2023-05-07T06:12:44;0.70;;;0.70;;
18857;SDS011;9558;50.178;8.370;2023-05-07T06:15:31;0.75;;;0.75;;
18857;SDS011;9558;50.178;8.370;2023-05-07T06:18:18;0.80;;;0.80;;
18857;SDS011;9558;50.178;8.370;2023-05-07T06:21:05;0.98;;;0.75;;
18857;SDS011;9558;50.178;8.370;2023-05-07T06:23:53;0.93;;;0.80;;
18857;SDS011;9558;50.178;8.370;2023-05-07T06:26:40;1.20;;;0.77;;
18857;SDS011;9558;50.178;8.370;2023-05-07T06:29:27;2.83;;;0.77;;
18857;SDS011;9558;50.178;8.370;2023-05-07T06:32:15;1.08;;;0.70;;
18857;SDS011;9558;50.178;8.370;2023-05-07T06:35:03;1.02;;;0.82;;
18857;SDS011;9558;50.178;8.370;2023-05-07T06:37:50;1.75;;;0.80;;
18857;SDS011;9558;50.178;8.370;2023-05-07T06:40:38;0.90;;;0.75;;
18857;SDS011;9558;50.178;8.370;2023-05-07T06:43:25;0.82;;;0.80;;
18857;SDS011;9558;50.178;8.370;2023-05-07T06:46:12;1.02;;;1.00;;
18857;SDS011;9558;50.178;8.370;2023-05-07T06:48:58;0.88;;;0.80;;
18857;SDS011;9558;50.178;8.370;2023-05-07T06:51:45;0.88;;;0.73;;
18857;SDS011;9558;50.178;8.370;2023-05-07T06:54:32;3.10;;;1.08;;
18857;SDS011;9558;50.178;8.370;2023-05-07T06:57:20;1.73;;;0.80;;
18857;SDS011;9558;50.178;8.370;2023-05-07T07:00:07;1.38;;;0.80;;
18857;SDS011;9558;50.178;8.370;2023-05-07T07:02:55;1.00;;;0.90;;
18857;SDS011;9558;50.178;8.370;2023-05-07T07:05:42;0.68;;;0.68;;
18857;SDS011;9558;50.178;8.370;2023-05-07T07:08:29;2.63;;;1.10;;
18857;SDS011;9558;50.178;8.370;2023-05-07T07:11:15;0.85;;;0.80;;
18857;SDS011;9558;50.178;8.370;2023-05-07T07:14:04;2.25;;;0.90;;
18857;SDS011;9558;50.178;8.370;2023-05-07T07:16:51;1.60;;;1.23;;
18857;SDS011;9558;50.178;8.370;2023-05-07T07:19:38;2.85;;;0.90;;
18857;SDS011;9558;50.178;8.370;2023-05-07T07:22:25;1.00;;;0.80;;
18857;SDS011;9558;50.178;8.370;2023-05-07T07:25:11;1.42;;;0.70;;
18857;SDS011;9558;50.178;8.370;2023-05-07T07:27:58;1.25;;;1.10;;
18857;SDS011;9558;50.178;8.370;2023-05-07T07:30:46;0.73;;;0.70;;
18857;SDS011;9558;50.178;8.370;2023-05-07T07:33:33;0.82;;;0.82;;
18857;SDS011;9558;50.178;8.370;2023-05-07T07:36:20;0.70;;;0.70;;
18857;SDS011;9558;50.178;8.370;2023-05-07T07:39:07;1.13;;;1.02;;
18857;SDS011;9558;50.178;8.370;2023-05-07T07:41:53;1.00;;;1.00;;
18857;SDS011;9558;50.178;8.370;2023-05-07T07:44:40;0.85;;;0.68;;
18857;SDS011;9558;50.178;8.370;2023-05-07T07:47:28;4.22;;;0.90;;
18857;SDS011;9558;50.178;8.370;2023-05-07T07:50:17;0.85;;;0.85;;
18857;SDS011;9558;50.178;8.370;2023-05-07T07:53:03;1.20;;;1.10;;
18857;SDS011;9558;50.178;8.370;2023-05-07T07:55:50;2.30;;;0.98;;
18857;SDS011;9558;50.178;8.370;2023-05-07T07:58:37;0.90;;;0.85;;
18857;SDS011;9558;50.178;8.370;2023-05-07T08:01:24;4.35;;;1.00;;
18857;SDS011;9558;50.178;8.370;2023-05-07T08:04:12;1.40;;;1.30;;
18857;SDS011;9558;50.178;8.370;2023-05-07T08:06:59;0.90;;;0.90;;
18857;SDS011;9558;50.178;8.370;2023-05-07T08:09:46;0.80;;;0.80;;
18857;SDS011;9558;50.178;8.370;2023-05-07T08:12:33;1.55;;;1.00;;
18857;SDS011;9558;50.178;8.370;2023-05-07T08:15:20;2.65;;;1.23;;
18857;SDS011;9558;50.178;8.370;2023-05-07T08:18:06;1.17;;;1.00;;
18857;SDS011;9558;50.178;8.370;2023-05-07T08:20:55;2.13;;;1.10;;
18857;SDS011;9558;50.178;8.370;2023-05-07T08:23:41;2.67;;;1.23;;
18857;SDS011;9558;50.178;8.370;2023-05-07T08:26:28;1.20;;;1.10;;
18857;SDS011;9558;50.178;8.370;2023-05-07T08:29:15;1.60;;;1.30;;
18857;SDS011;9558;50.178;8.370;2023-05-07T08:32:02;2.78;;;1.33;;
18857;SDS011;9558;50.178;8.370;2023-05-07T08:34:49;3.28;;;1.30;;
18857;SDS011;9558;50.178;8.370;2023-05-07T08:37:37;1.13;;;1.02;;
18857;SDS011;9558;50.178;8.370;2023-05-07T08:40:25;1.25;;;1.15;;
18857;SDS011;9558;50.178;8.370;2023-05-07T08:43:13;2.03;;;1.30;;
18857;SDS011;9558;50.178;8.370;2023-05-07T08:46:01;0.95;;;0.93;;
18857;SDS011;9558;50.178;8.370;2023-05-07T08:48:48;1.60;;;1.15;;
18857;SDS011;9558;50.178;8.370;2023-05-07T08:51:36;1.95;;;1.45;;
18857;SDS011;9558;50.178;8.370;2023-05-07T08:54:24;1.13;;;1.02;;
18857;SDS011;9558;50.178;8.370;2023-05-07T08:57:12;1.05;;;1.05;;
18857;SDS011;9558;50.178;8.370;2023-05-07T08:59:58;1.30;;;1.20;;
18857;SDS011;9558;50.178;8.370;2023-05-07T09:02:45;1.98;;;1.40;;
18857;SDS011;9558;50.178;8.370;2023-05-07T09:05:32;1.20;;;1.10;;
18857;SDS011;9558;50.178;8.370;2023-05-07T09:08:19;1.65;;;1.00;;
18857;SDS011;9558;50.178;8.370;2023-05-07T09:11:12;1.52;;;1.42;;
18857;SDS011;9558;50.178;8.370;2023-05-07T09:13:59;1.45;;;1.20;;
18857;SDS011;9558;50.178;8.370;2023-05-07T09:16:47;1.50;;;1.30;;
18857;SDS011;9558;50.178;8.370;2023-05-07T09:19:34;1.58;;;1.45;;
18857;SDS011;9558;50.178;8.370;2023-05-07T09:22:20;2.75;;;1.40;;
18857;SDS011;9558;50.178;8.370;2023-05-07T09:25:08;1.42;;;1.15;;
18857;SDS011;9558;50.178;8.370;2023-05-07T09:27:56;1.52;;;1.42;;
18857;SDS011;9558;50.178;8.370;2023-05-07T09:30:43;1.65;;;1.40;;
18857;SDS011;9558;50.178;8.370;2023-05-07T09:33:30;2.08;;;1.60;;
18857;SDS011;9558;50.178;8.370;2023-05-07T09:36:17;1.42;;;1.30;;
18857;SDS011;9558;50.178;8.370;2023-05-07T09:39:04;1.67;;;1.45;;
18857;SDS011;9558;50.178;8.370;2023-05-07T09:41:51;1.63;;;1.50;;
18857;SDS011;9558;50.178;8.370;2023-05-07T09:44:41;1.45;;;1.20;;
18857;SDS011;9558;50.178;8.370;2023-05-07T09:47:30;1.88;;;1.45;;
18857;SDS011;9558;50.178;8.370;2023-05-07T09:50:18;2.00;;;1.83;;
18857;SDS011;9558;50.178;8.370;2023-05-07T09:53:06;2.25;;;1.50;;
18857;SDS011;9558;50.178;8.370;2023-05-07T09:55:56;2.17;;;1.63;;
18857;SDS011;9558;50.178;8.370;2023-05-07T09:58:43;3.60;;;1.90;;
18857;SDS011;9558;50.178;8.370;2023-05-07T10:01:32;2.17;;;1.77;;
18857;SDS011;9558;50.178;8.370;2023-05-07T10:04:22;1.85;;;1.50;;
18857;SDS011;9558;50.178;8.370;2023-05-07T10:07:09;1.73;;;1.55;;
18857;SDS011;9558;50.178;8.370;2023-05-07T10:09:56;1.20;;;1.10;;
18857;SDS011;9558;50.178;8.370;2023-05-07T10:12:45;3.20;;;1.40;;
18857;SDS011;9558;50.178;8.370;2023-05-07T10:15:33;1.40;;;1.30;;
18857;SDS011;9558;50.178;8.370;2023-05-07T10:18:22;1.33;;;1.20;;
18857;SDS011;9558;50.178;8.370;2023-05-07T10:21:16;2.22;;;1.60;;
18857;SDS011;9558;50.178;8.370;2023-05-07T10:24:04;2.35;;;1.70;;
18857;SDS011;9558;50.178;8.370;2023-05-07T10:26:59;2.20;;;1.73;;
18857;SDS011;9558;50.178;8.370;2023-05-07T10:29:49;1.73;;;1.48;;
18857;SDS011;9558;50.178;8.370;2023-05-07T10:32:45;3.30;;;1.70;;
18857;SDS011;9558;50.178;8.370;2023-05-07T10:35:37;1.80;;;1.70;;
18857;SDS011;9558;50.178;8.370;2023-05-07T10:38:27;2.20;;;1.88;;
18857;SDS011;9558;50.178;8.370;2023-05-07T10:41:14;2.53;;;1.48;;
18857;SDS011;9558;50.178;8.370;2023-05-07T10:44:02;1.65;;;1.42;;
18857;SDS011;9558;50.178;8.370;2023-05-07T10:47:04;1.75;;;1.50;;
18857;SDS011;9558;50.178;8.370;2023-05-07T10:53:23;2.72;;;1.80;;
18857;SDS011;9558;50.178;8.370;2023-05-07T10:56:26;2.22;;;1.90;;
18857;SDS011;9558;50.178;8.370;2023-05-07T11:05:46;2.33;;;1.58;;
18857;SDS011;9558;50.178;8.370;2023-05-07T11:11:46;3.20;;;1.40;;
18857;SDS011;9558;50.178;8.370;2023-05-07T11:14:42;1.65;;;1.30;;
18857;SDS011;9558;50.178;8.370;2023-05-07T11:17:30;2.58;;;1.45;;
18857;SDS011;9558;50.178;8.370;2023-05-07T11:20:19;1.50;;;1.40;;
18857;SDS011;9558;50.178;8.370;2023-05-07T11:23:06;1.35;;;1.25;;
18857;SDS011;9558;50.178;8.370;2023-05-07T11:25:59;1.40;;;1.30;;
18857;SDS011;9558;50.178;8.370;2023-05-07T11:28:46;1.38;;;1.27;;
18857;SDS011;9558;50.178;8.370;2023-05-07T11:31:33;1.75;;;1.50;;
18857;SDS011;9558;50.178;8.370;2023-05-07T11:34:20;2.30;;;1.63;;
18857;SDS011;9558;50.178;8.370;2023-05-07T11:37:08;2.65;;;1.77;;
18857;SDS011;9558;50.178;8.370;2023-05-07T11:40:02;4.68;;;1.58;;
18857;SDS011;9558;50.178;8.370;2023-05-07T11:42:52;1.50;;;1.40;;
18857;SDS011;9558;50.178;8.370;2023-05-07T11:45:38;2.88;;;1.20;;
18857;SDS011;9558;50.178;8.370;2023-05-07T11:48:25;3.13;;;1.80;;
18857;SDS011;9558;50.178;8.370;2023-05-07T11:51:12;1.88;;;1.20;;
18857;SDS011;9558;50.178;8.370;2023-05-07T11:53:59;3.42;;;1.70;;
18857;SDS011;9558;50.178;8.370;2023-05-07T11:56:45;1.55;;;1.33;;
18857;SDS011;9558;50.178;8.370;2023-05-07T11:59:39;1.67;;;1.58;;
18857;SDS011;9558;50.178;8.370;2023-05-07T12:02:26;1.90;;;1.55;;
18857;SDS011;9558;50.178;8.370;2023-05-07T12:05:13;2.30;;;1.45;;
18857;SDS011;9558;50.178;8.370;2023-05-07T12:08:00;1.58;;;1.48;;
18857;SDS011;9558;50.178;8.370;2023-05-07T12:10:47;1.88;;;1.20;;
18857;SDS011;9558;50.178;8.370;2023-05-07T12:13:35;1.40;;;1.30;;
18857;SDS011;9558;50.178;8.370;2023-05-07T12:16:23;2.60;;;1.30;;
18857;SDS011;9558;50.178;8.370;2023-05-07T12:19:10;2.10;;;1.45;;
18857;SDS011;9558;50.178;8.370;2023-05-07T12:21:58;3.97;;;1.60;;
18857;SDS011;9558;50.178;8.370;2023-05-07T12:24:45;1.40;;;1.30;;
18857;SDS011;9558;50.178;8.370;2023-05-07T12:27:36;1.65;;;1.55;;
18857;SDS011;9558;50.178;8.370;2023-05-07T12:30:23;2.25;;;1.80;;
18857;SDS011;9558;50.178;8.370;2023-05-07T12:33:11;4.47;;;1.67;;
18857;SDS011;9558;50.178;8.370;2023-05-07T12:36:00;1.52;;;1.42;;
18857;SDS011;9558;50.178;8.370;2023-05-07T12:38:50;1.73;;;1.55;;
18857;SDS011;9558;50.178;8.370;2023-05-07T12:41:51;1.70;;;1.60;;
18857;SDS011;9558;50.178;8.370;2023-05-07T12:44:39;1.98;;;1.50;;
18857;SDS011;9558;50.178;8.370;2023-05-07T12:47:26;5.00;;;1.75;;
18857;SDS011;9558;50.178;8.370;2023-05-07T12:50:14;2.05;;;1.40;;
18857;SDS011;9558;50.178;8.370;2023-05-07T12:53:02;1.85;;;1.67;;
18857;SDS011;9558;50.178;8.370;2023-05-07T12:55:51;1.40;;;1.30;;
18857;SDS011;9558;50.178;8.370;2023-05-07T12:58:39;2.50;;;1.77;;
18857;SDS011;9558;50.178;8.370;2023-05-07T13:01:28;1.52;;;1.15;;
18857;SDS011;9558;50.178;8.370;2023-05-07T13:04:16;2.63;;;1.50;;
18857;SDS011;9558;50.178;8.370;2023-05-07T13:07:04;1.60;;;1.30;;
18857;SDS011;9558;50.178;8.370;2023-05-07T13:09:50;1.60;;;1.50;;
18857;SDS011;9558;50.178;8.370;2023-05-07T13:12:37;1.75;;;1.40;;
18857;SDS011;9558;50.178;8.370;2023-05-07T13:15:24;1.10;;;1.00;;
18857;SDS011;9558;50.178;8.370;2023-05-07T13:18:12;1.13;;;1.05;;
18857;SDS011;9558;50.178;8.370;2023-05-07T13:20:59;1.10;;;1.00;;
18857;SDS011;9558;50.178;8.370;2023-05-07T13:23:48;1.30;;;1.00;;
18857;SDS011;9558;50.178;8.370;2023-05-07T13:26:35;1.95;;;1.45;;
18857;SDS011;9558;50.178;8.370;2023-05-07T13:29:22;1.90;;;1.42;;
18857;SDS011;9558;50.178;8.370;2023-05-07T13:32:13;2.10;;;1.30;;
18857;SDS011;9558;50.178;8.370;2023-05-07T13:35:00;1.67;;;1.55;;
18857;SDS011;9558;50.178;8.370;2023-05-07T13:37:47;1.25;;;1.15;;
18857;SDS011;9558;50.178;8.370;2023-05-07T13:40:35;2.35;;;1.48;;
18857;SDS011;9558;50.178;8.370;2023-05-07T13:43:22;1.55;;;1.27;;
18857;SDS011;9558;50.178;8.370;2023-05-07T13:46:09;2.67;;;1.50;;
18857;SDS011;9558;50.178;8.370;2023-05-07T13:48:56;1.60;;;1.50;;
18857;SDS011;9558;50.178;8.370;2023-05-07T13:51:43;3.88;;;1.40;;
18857;SDS011;9558;50.178;8.370;2023-05-07T13:54:29;3.47;;;1.58;;
18857;SDS011;9558;50.178;8.370;2023-05-07T13:57:17;1.33;;;1.20;;
18857;SDS011;9558;50.178;8.370;2023-05-07T14:00:05;1.73;;;1.50;;
18857;SDS011;9558;50.178;8.370;2023-05-07T14:02:53;1.17;;;1.08;;
18857;SDS011;9558;50.178;8.370;2023-05-07T14:05:40;1.25;;;1.15;;
18857;SDS011;9558;50.178;8.370;2023-05-07T14:08:27;1.67;;;1.20;;
18857;SDS011;9558;50.178;8.370;2023-05-07T14:11:14;1.10;;;1.10;;
18857;SDS011;9558;50.178;8.370;2023-05-07T14:14:02;7.68;;;1.45;;
18857;SDS011;9558;50.178;8.370;2023-05-07T14:16:49;1.55;;;1.30;;
18857;SDS011;9558;50.178;8.370;2023-05-07T14:19:35;1.70;;;1.40;;
18857;SDS011;9558;50.178;8.370;2023-05-07T14:22:22;1.75;;;1.50;;
18857;SDS011;9558;50.178;8.370;2023-05-07T14:25:09;1.90;;;1.60;;
18857;SDS011;9558;50.178;8.370;2023-05-07T14:27:56;2.28;;;1.77;;
18857;SDS011;9558;50.178;8.370;2023-05-07T14:30:44;6.05;;;1.50;;
18857;SDS011;9558;50.178;8.370;2023-05-07T14:33:31;5.78;;;1.63;;
18857;SDS011;9558;50.178;8.370;2023-05-07T14:36:18;1.25;;;1.15;;
18857;SDS011;9558;50.178;8.370;2023-05-07T14:39:06;0.90;;;0.90;;
18857;SDS011;9558;50.178;8.370;2023-05-07T14:41:53;1.65;;;1.50;;
18857;SDS011;9558;50.178;8.370;2023-05-07T14:44:41;1.45;;;1.20;;
18857;SDS011;9558;50.178;8.370;2023-05-07T14:47:29;2.05;;;1.50;;
18857;SDS011;9558;50.178;8.370;2023-05-07T14:50:16;1.65;;;1.52;;
18857;SDS011;9558;50.178;8.370;2023-05-07T14:53:03;1.70;;;1.60;;
18857;SDS011;9558;50.178;8.370;2023-05-07T14:55:50;2.28;;;1.33;;
18857;SDS011;9558;50.178;8.370;2023-05-07T14:58:36;6.65;;;1.50;;
18857;SDS011;9558;50.178;8.370;2023-05-07T15:01:25;1.38;;;1.20;;
18857;SDS011;9558;50.178;8.370;2023-05-07T15:04:13;1.50;;;1.33;;
18857;SDS011;9558;50.178;8.370;2023-05-07T15:07:00;2.42;;;1.60;;
18857;SDS011;9558;50.178;8.370;2023-05-07T15:09:47;1.95;;;1.45;;
18857;SDS011;9558;50.178;8.370;2023-05-07T15:12:33;1.33;;;1.05;;
18857;SDS011;9558;50.178;8.370;2023-05-07T15:15:20;1.65;;;1.45;;
18857;SDS011;9558;50.178;8.370;2023-05-07T15:18:07;1.85;;;1.23;;
18857;SDS011;9558;50.178;8.370;2023-05-07T15:20:56;1.60;;;1.42;;
18857;SDS011;9558;50.178;8.370;2023-05-07T15:23:43;1.25;;;1.15;;
18857;SDS011;9558;50.178;8.370;2023-05-07T15:26:30;1.73;;;1.58;;
18857;SDS011;9558;50.178;8.370;2023-05-07T15:29:17;1.48;;;1.38;;
18857;SDS011;9558;50.178;8.370;2023-05-07T15:32:04;2.75;;;1.40;;
18857;SDS011;9558;50.178;8.370;2023-05-07T15:34:51;1.55;;;1.45;;
18857;SDS011;9558;50.178;8.370;2023-05-07T15:37:39;1.35;;;1.25;;
18857;SDS011;9558;50.178;8.370;2023-05-07T15:40:26;3.58;;;1.52;;
18857;SDS011;9558;50.178;8.370;2023-05-07T15:43:13;1.88;;;1.38;;
18857;SDS011;9558;50.178;8.370;2023-05-07T15:46:00;1.20;;;1.10;;
18857;SDS011;9558;50.178;8.370;2023-05-07T15:48:47;1.25;;;1.15;;
18857;SDS011;9558;50.178;8.370;2023-05-07T15:51:34;1.65;;;1.38;;
18857;SDS011;9558;50.178;8.370;2023-05-07T15:54:22;1.52;;;1.35;;
18857;SDS011;9558;50.178;8.370;2023-05-07T15:57:09;1.75;;;1.42;;
18857;SDS011;9558;50.178;8.370;2023-05-07T15:59:56;1.50;;;1.40;;
18857;SDS011;9558;50.178;8.370;2023-05-07T16:02:43;2.15;;;1.40;;
18857;SDS011;9558;50.178;8.370;2023-05-07T16:05:30;1.45;;;1.35;;
18857;SDS011;9558;50.178;8.370;2023-05-07T16:08:17;1.45;;;1.35;;
18857;SDS011;9558;50.178;8.370;2023-05-07T16:11:05;1.40;;;1.30;;
18857;SDS011;9558;50.178;8.370;2023-05-07T16:13:51;1.35;;;1.13;;
18857;SDS011;9558;50.178;8.370;2023-05-07T16:16:38;1.20;;;1.10;;
18857;SDS011;9558;50.178;8.370;2023-05-07T16:19:25;2.17;;;1.42;;
18857;SDS011;9558;50.178;8.370;2023-05-07T16:22:12;2.15;;;1.00;;
18857;SDS011;9558;50.178;8.370;2023-05-07T16:24:59;1.55;;;1.00;;
18857;SDS011;9558;50.178;8.370;2023-05-07T16:27:48;1.50;;;1.35;;
18857;SDS011;9558;50.178;8.370;2023-05-07T16:30:34;1.90;;;1.50;;
18857;SDS011;9558;50.178;8.370;2023-05-07T16:33:21;1.50;;;1.10;;
18857;SDS011;9558;50.178;8.370;2023-05-07T16:36:08;2.92;;;1.15;;
18857;SDS011;9558;50.178;8.370;2023-05-07T16:38:55;1.58;;;1.20;;
18857;SDS011;9558;50.178;8.370;2023-05-07T16:41:41;1.00;;;1.00;;
18857;SDS011;9558;50.178;8.370;2023-05-07T16:44:30;2.08;;;1.48;;
18857;SDS011;9558;50.178;8.370;2023-05-07T16:47:17;2.05;;;1.20;;
18857;SDS011;9558;50.178;8.370;2023-05-07T16:50:04;1.50;;;1.40;;
18857;SDS011;9558;50.178;8.370;2023-05-07T16:52:52;1.75;;;1.58;;
18857;SDS011;9558;50.178;8.370;2023-05-07T16:55:39;1.63;;;1.50;;
18857;SDS011;9558;50.178;8.370;2023-05-07T16:58:25;1.55;;;1.25;;
18857;SDS011;9558;50.178;8.370;2023-05-07T17:01:14;2.08;;;1.48;;
18857;SDS011;9558;50.178;8.370;2023-05-07T17:04:03;1.77;;;1.40;;
18857;SDS011;9558;50.178;8.370;2023-05-07T17:06:50;2.78;;;1.10;;
18857;SDS011;9558;50.178;8.370;2023-05-07T17:09:36;1.40;;;1.08;;
18857;SDS011;9558;50.178;8.370;2023-05-07T17:12:23;1.10;;;1.00;;
18857;SDS011;9558;50.178;8.370;2023-05-07T17:15:11;1.30;;;1.20;;
18857;SDS011;9558;50.178;8.370;2023-05-07T17:17:59;1.42;;;0.90;;